Capitol Logistics 961

Operating for DHL



LFPG
Charles de Gaulle
Paris, FR
EDDK
Cologne Bonn Airport
Cologne, DE

Route Details

Aircraft Information
Group: European Fleet
Types: A30F,A31F,B738
Route Data
Demand: M
Distance: 210nm
Duration: 1h 10m
Recm'd Route: RANU5G RANUX UN858 MEDOX/N0443F230 UN858 VALEK UM163 DIK N853 ARCKY T853 IBESA T860 ERUKI T856 DEPOK DEPO1C
Origin Wx: LFPG 270630Z 27008KT 9999 OVC014 13/10 Q1025 TEMPO BKN012
Dest. Wx: EDDK 270650Z AUTO 27014KT 240V310 2600 RA BR OVC007 13/12 Q1020 BECMG 7000 NSW BKN012
Notes:

Financial History
Total Freight: 173,688lbs
Average Load: 57,896lbs/flt
Fuel Used: 31,451lbs
Avg. Fuel Used: 10,484lbs/flt
Fuel Expense: $9,597
Avg. Fuel Expense: $3,199
Avg. Fuel Cost: $0.30/lbs
Total Gross Income: $354,497
Pilot Pay: $687
Total Expenses: $50,128
Total Revenue: $294,236
Average Revenue: $118,165.73